Terminal Aerodrome Forecast
Issued by NWS Quad Cities IA IL

Home | Current Version | Previous Version | Text Only | Print | Product List | Glossary On
Versions: 1 2 3 4 5 6 7 8 9 10 11 12 13 14 15 16 17 18 19 20 21 22 23 24 25 26 27 28 29 30
767
FTUS43 KDVN 011019 AAA
TAFMLI
TAF AMD
KMLI 011019Z 0110/0206 01006KT P6SM OVC015
      TEMPO 0110/0112 5SM -DZRA BR OVC008
     FM011200 02008KT P6SM VCSH BKN007 OVC015
     FM011700 03006KT P6SM VCSH BKN018 OVC030=

USA.gov is the U.S. government's official web portal to all federal, state and local government web resources and services.